createdAt,value
2022-09-17T00:03:06.166Z,99724.25
2022-09-17T00:08:13.699Z,99738.06
2022-09-17T00:13:16.517Z,99732.19
2022-09-17T00:18:19.605Z,99730.72
2022-09-17T00:23:23.745Z,99737.22
2022-09-17T00:28:26.649Z,99741.88
2022-09-17T00:33:29.377Z,99736.41
2022-09-17T00:38:33.918Z,99739.00
2022-09-17T00:43:40.215Z,99735.41
2022-09-17T00:48:43.039Z,99743.72
2022-09-17T00:53:47.429Z,99738.25
2022-09-17T00:58:51.698Z,99742.16
2022-09-17T01:03:54.446Z,99740.50
2022-09-17T01:09:11.865Z,99748.25
2022-09-17T01:14:32.570Z,99751.56
2022-09-17T01:20:04.478Z,99752.22
2022-09-17T01:25:24.904Z,99756.75
2022-09-17T01:30:36.128Z,99752.69
2022-09-17T01:35:48.728Z,99763.72
2022-09-17T01:40:56.980Z,99761.22
2022-09-17T01:46:08.380Z,99763.03
2022-09-17T01:51:15.179Z,99763.00
2022-09-17T01:56:21.460Z,99775.59
2022-09-17T02:01:31.058Z,99770.66
2022-09-17T02:06:38.605Z,99767.09
2022-09-17T02:11:43.722Z,99775.31
2022-09-17T02:16:53.078Z,99761.09
2022-09-17T02:22:03.929Z,99771.63
2022-09-17T02:27:13.348Z,99777.59
2022-09-17T02:32:17.520Z,99780.72
2022-09-17T02:37:20.525Z,99781.44
2022-09-17T02:42:32.291Z,99793.72
2022-09-17T02:47:59.901Z,99791.88
2022-09-17T02:53:20.946Z,99788.47
2022-09-17T02:58:29.494Z,99784.09
2022-09-17T03:03:39.058Z,99775.91
2022-09-17T03:08:43.303Z,99782.91
2022-09-17T03:13:46.282Z,99783.09
2022-09-17T03:18:50.454Z,99782.03
2022-09-17T03:23:53.337Z,99775.66
2022-09-17T03:28:56.113Z,99783.81
2022-09-17T03:34:00.066Z,99780.84
2022-09-17T03:39:03.206Z,99796.16
2022-09-17T03:44:06.593Z,99803.38
2022-09-17T03:49:10.809Z,99818.56
2022-09-17T03:54:13.600Z,99806.38
2022-09-17T03:59:16.384Z,99819.91
2022-09-17T04:04:20.509Z,99822.81
2022-09-17T04:09:23.277Z,99827.09
2022-09-17T04:14:25.846Z,99833.78
2022-09-17T04:19:29.993Z,99831.59
2022-09-17T04:24:32.807Z,99837.06
2022-09-17T04:29:35.393Z,99847.53
2022-09-17T04:34:39.575Z,99843.53
2022-09-17T04:39:42.337Z,99840.59
2022-09-17T04:44:45.014Z,99842.53
2022-09-17T04:49:49.246Z,99838.78
2022-09-17T04:54:52.064Z,99838.78
2022-09-17T04:59:54.668Z,99846.16
2022-09-17T05:04:59.054Z,99840.13
2022-09-17T05:10:01.830Z,99848.97
2022-09-17T05:15:04.748Z,99859.28
2022-09-17T05:20:09.824Z,99867.28
2022-09-17T05:25:13.013Z,99873.03
2022-09-17T05:30:15.833Z,99876.53
2022-09-17T05:35:20.109Z,99874.13
2022-09-17T05:40:22.947Z,99867.78
2022-09-17T05:45:25.753Z,99875.16
2022-09-17T05:50:30.833Z,99877.66
2022-09-17T05:55:34.912Z,99880.72
2022-09-17T06:00:37.781Z,99887.72
2022-09-17T06:06:31.023Z,99880.34
2022-09-17T06:11:35.166Z,99890.69
2022-09-17T06:16:38.272Z,99899.47
2022-09-17T06:21:40.993Z,99903.72
2022-09-17T06:26:44.847Z,99907.22
2022-09-17T06:31:48.951Z,99910.72
2022-09-17T06:36:51.827Z,99915.69
2022-09-17T06:41:55.726Z,99912.03
2022-09-17T06:46:58.462Z,99913.16
2022-09-17T06:52:01.787Z,99916.09
2022-09-17T06:57:07.104Z,99916.41
2022-09-17T07:02:10.534Z,99907.63
2022-09-17T07:07:13.496Z,99913.53
2022-09-17T07:12:17.693Z,99919.34
2022-09-17T07:17:20.480Z,99925.22
2022-09-17T07:22:25.611Z,99912.50
2022-09-17T07:27:30.641Z,99931.44
2022-09-17T07:32:33.398Z,99921.00
2022-09-17T07:37:36.344Z,99917.53
2022-09-17T07:42:40.735Z,99907.59
2022-09-17T07:47:44.340Z,99907.00
2022-09-17T07:52:48.068Z,99907.78
2022-09-17T07:57:55.051Z,99913.66
2022-09-17T08:02:58.645Z,99904.13
2022-09-17T08:08:01.621Z,99889.91
2022-09-17T08:13:05.716Z,99908.81
2022-09-17T08:18:08.585Z,99912.00
2022-09-17T08:23:11.293Z,99913.78
2022-09-17T08:28:15.431Z,99896.63
2022-09-17T08:33:18.941Z,99900.47
2022-09-17T08:38:22.152Z,99898.19
2022-09-17T08:43:27.043Z,99901.41
2022-09-17T08:48:38.243Z,99902.91
2022-09-17T08:53:53.685Z,99903.34
2022-09-17T08:59:11.774Z,99907.09
2022-09-17T09:04:38.100Z,99897.44
2022-09-17T09:09:46.588Z,99894.75
2022-09-17T09:14:57.096Z,99888.13
2022-09-17T09:19:59.857Z,99885.53
2022-09-17T09:25:12.845Z,99876.47
2022-09-17T09:30:18.627Z,99897.59
2022-09-17T09:35:24.776Z,99902.78
2022-09-17T09:40:36.142Z,99908.91
2022-09-17T09:46:00.678Z,99908.94
2022-09-17T09:51:17.375Z,99918.13
2022-09-17T09:56:44.584Z,99907.06
2022-09-17T10:01:49.093Z,99911.66
2022-09-17T10:06:54.703Z,99898.94
2022-09-17T10:12:06.562Z,99910.19
2022-09-17T10:17:19.248Z,99898.66
2022-09-17T10:22:27.060Z,99899.72
2022-09-17T10:27:31.463Z,99901.38
2022-09-17T10:32:36.173Z,99893.09
2022-09-17T10:37:45.246Z,99908.34
2022-09-17T10:42:48.779Z,99855.34
2022-09-17T10:47:54.046Z,99884.09
2022-09-17T10:52:58.782Z,99874.19
2022-09-17T10:58:11.962Z,99877.09
2022-09-17T11:04:01.310Z,99848.22
2022-09-17T11:09:16.256Z,99843.91
2022-09-17T11:14:41.303Z,99848.88
2022-09-17T11:19:58.797Z,99882.66
2022-09-17T11:25:21.254Z,99858.75
2022-09-17T11:30:27.102Z,99853.53
2022-09-17T11:35:36.589Z,99848.47
2022-09-17T11:40:44.324Z,99856.22
2022-09-17T11:45:57.794Z,99843.94
2022-09-17T11:51:05.990Z,99858.97
2022-09-17T11:56:17.769Z,99855.75
2022-09-17T12:01:25.856Z,99839.66
2022-09-17T12:06:38.094Z,99838.91
2022-09-17T12:11:45.309Z,99838.06
2022-09-17T12:16:53.090Z,99841.81
2022-09-17T12:22:01.513Z,99846.47
2022-09-17T12:27:25.355Z,99842.94
2022-09-17T12:32:43.300Z,99831.00
2022-09-17T12:37:57.907Z,99817.59
2022-09-17T12:43:18.342Z,99818.97
2022-09-17T12:48:41.460Z,99813.69
2022-09-17T12:53:57.542Z,99813.31
2022-09-17T12:59:08.934Z,99788.47
2022-09-17T13:04:43.644Z,99786.63
2022-09-17T13:10:12.831Z,99811.16
2022-09-17T13:15:37.732Z,99809.16
2022-09-17T13:20:53.681Z,99771.06
2022-09-17T13:26:05.744Z,99806.31
2022-09-17T13:31:08.777Z,99803.78
2022-09-17T13:36:38.051Z,99794.56
2022-09-17T13:41:43.522Z,99780.16
2022-09-17T13:46:47.761Z,99803.88
2022-09-17T13:51:54.920Z,99774.19
2022-09-17T13:57:12.293Z,99797.09
2022-09-17T14:02:37.318Z,99807.28
2022-09-17T14:07:48.983Z,99827.66
2022-09-17T14:13:02.691Z,99813.97
2022-09-17T14:18:53.878Z,99805.16
2022-09-17T14:23:59.585Z,99812.69
2022-09-17T14:29:12.855Z,99834.28
2022-09-17T14:34:22.179Z,99822.97
2022-09-17T14:39:29.185Z,99813.28
2022-09-17T14:44:36.081Z,99812.34
2022-09-17T14:49:40.894Z,99828.09
2022-09-17T14:54:44.730Z,99798.63
2022-09-17T14:59:52.219Z,99812.50
2022-09-17T15:04:55.048Z,99813.63
2022-09-17T15:10:09.394Z,99808.81
2022-09-17T15:15:20.419Z,99805.41
2022-09-17T15:20:28.807Z,99801.53
2022-09-17T15:25:32.809Z,99794.56
2022-09-17T15:30:37.260Z,99788.56
2022-09-17T15:35:41.057Z,99799.97
2022-09-17T15:40:44.175Z,99796.88
2022-09-17T15:45:48.965Z,99793.66
2022-09-17T15:50:53.327Z,99793.63
2022-09-17T15:56:02.783Z,99807.09
2022-09-17T16:06:48.163Z,99802.59
2022-09-17T16:11:50.987Z,99809.28
2022-09-17T16:16:56.173Z,99812.81
2022-09-17T16:22:00.508Z,99806.22
2022-09-17T16:27:04.682Z,99820.19
2022-09-17T16:32:09.901Z,99830.75
2022-09-17T16:37:14.062Z,99872.63
2022-09-17T16:42:16.828Z,99888.41
2022-09-17T16:47:19.720Z,99882.28
2022-09-17T16:52:23.888Z,99866.28
2022-09-17T16:57:26.792Z,99875.06
2022-09-17T17:02:29.575Z,99880.69
2022-09-17T17:07:33.736Z,99883.97
2022-09-17T17:12:37.131Z,99877.53
2022-09-17T17:17:40.162Z,99889.75
2022-09-17T17:22:45.150Z,99868.03
2022-09-17T17:27:47.980Z,99881.72
2022-09-17T17:32:52.170Z,99896.34
2022-09-17T17:37:56.428Z,99886.31
2022-09-17T17:42:59.232Z,99899.03
2022-09-17T17:54:37.174Z,99916.22
2022-09-17T17:59:39.944Z,99922.63
2022-09-17T18:04:42.473Z,99927.34
2022-09-17T18:09:46.989Z,99930.09
2022-09-17T18:14:49.629Z,99926.47
2022-09-17T18:19:52.455Z,99929.75
2022-09-17T18:24:56.620Z,99951.53
2022-09-17T18:29:59.465Z,99951.25
2022-09-17T18:35:02.354Z,99954.41
2022-09-17T18:40:07.466Z,99948.69
2022-09-17T18:45:11.117Z,99966.63
2022-09-17T18:50:14.338Z,99980.19
2022-09-17T18:55:18.534Z,99980.50
2022-09-17T19:00:22.584Z,99991.47
2022-09-17T19:05:25.424Z,99994.69
2022-09-17T19:10:29.599Z,100001.78
2022-09-17T19:15:33.827Z,100010.25
2022-09-17T19:20:38.550Z,100007.84
2022-09-17T19:25:45.026Z,100010.56
2022-09-17T19:30:47.935Z,100008.59
2022-09-17T19:35:51.179Z,100020.09
2022-09-17T19:41:00.237Z,100015.41
2022-09-17T19:46:03.606Z,100023.34
2022-09-17T19:51:06.754Z,100005.69
2022-09-17T19:56:12.857Z,100017.84
2022-09-17T20:01:16.730Z,100025.25
2022-09-17T20:06:20.981Z,100021.97
2022-09-17T20:11:26.296Z,100021.94
2022-09-17T20:16:29.199Z,100026.28
2022-09-17T20:21:32.055Z,100035.13
2022-09-17T20:26:36.326Z,100032.59
2022-09-17T20:31:39.613Z,100032.84
2022-09-17T20:36:42.818Z,100024.22
2022-09-17T20:41:47.007Z,100032.72
2022-09-17T20:46:50.138Z,100031.03
2022-09-17T20:51:52.973Z,100027.09
2022-09-17T20:56:57.340Z,100036.53
2022-09-17T21:02:00.266Z,100050.63
2022-09-17T21:07:03.199Z,100050.28
2022-09-17T21:12:07.808Z,100049.28
2022-09-17T21:17:10.646Z,100044.91
2022-09-17T21:22:13.455Z,100052.13
2022-09-17T21:27:17.393Z,100050.88
2022-09-17T21:32:20.166Z,100058.31
2022-09-17T21:37:22.928Z,100035.41
2022-09-17T21:42:27.208Z,100062.59
2022-09-17T21:47:30.029Z,100062.91
2022-09-17T21:52:34.452Z,100047.22
2022-09-17T21:57:38.590Z,100047.56
2022-09-17T22:02:41.437Z,100044.88
2022-09-17T22:07:44.310Z,100056.25
2022-09-17T22:12:48.428Z,100047.56
2022-09-17T22:17:51.153Z,100057.31
2022-09-17T22:22:53.715Z,100049.09
2022-09-17T22:28:19.632Z,100054.19
2022-09-17T22:33:20.529Z,100064.38
2022-09-17T22:38:23.105Z,100069.63
2022-09-17T22:43:27.182Z,100058.47
2022-09-17T22:48:30.951Z,100066.56
2022-09-17T22:53:33.755Z,100053.59
2022-09-17T22:58:38.249Z,100059.25
2022-09-17T23:03:41.714Z,100056.22
2022-09-17T23:08:44.834Z,100053.78
2022-09-17T23:13:49.718Z,100060.88
2022-09-17T23:18:52.804Z,100059.00
2022-09-17T23:23:55.500Z,100061.09
2022-09-17T23:29:04.384Z,100060.63
2022-09-17T23:34:08.053Z,100054.16
2022-09-17T23:39:12.522Z,100055.50
2022-09-17T23:44:16.642Z,100052.56
2022-09-17T23:49:19.471Z,100063.59
2022-09-17T23:54:22.196Z,100060.13
2022-09-17T23:59:26.265Z,100062.22
